createdAt,value
2023-02-24T00:02:06.312Z,2.57
2023-02-24T00:04:40.945Z,2.58
2023-02-24T00:07:11.676Z,2.59
2023-02-24T00:09:40.374Z,2.60
2023-02-24T00:12:13.350Z,2.60
2023-02-24T00:14:44.817Z,2.60
2023-02-24T00:17:14.847Z,2.59
2023-02-24T00:19:43.712Z,2.58
2023-02-24T00:22:12.959Z,2.58
2023-02-24T00:24:42.241Z,2.58
2023-02-24T00:27:13.386Z,2.60
2023-02-24T00:29:42.431Z,2.61
2023-02-24T00:32:13.644Z,2.61
2023-02-24T00:34:43.472Z,2.62
2023-02-24T00:37:12.393Z,2.63
2023-02-24T00:39:42.237Z,2.62
2023-02-24T00:42:12.221Z,2.63
2023-02-24T00:44:45.404Z,2.62
2023-02-24T00:47:17.716Z,2.61
2023-02-24T00:49:46.371Z,2.59
2023-02-24T00:52:20.057Z,2.57
2023-02-24T00:54:49.730Z,2.55
2023-02-24T00:57:20.711Z,2.50
2023-02-24T00:59:51.516Z,2.46
2023-02-24T01:02:20.759Z,2.44
2023-02-24T01:04:51.200Z,2.43
2023-02-24T01:07:19.777Z,2.43
2023-02-24T01:09:51.015Z,2.44
2023-02-24T01:12:22.103Z,2.45
2023-02-24T01:14:52.979Z,2.45
2023-02-24T01:17:22.114Z,2.44
2023-02-24T01:19:50.734Z,2.45
2023-02-24T01:22:20.834Z,2.44
2023-02-24T01:24:49.626Z,2.45
2023-02-24T01:27:19.571Z,2.44
2023-02-24T01:29:49.167Z,2.44
2023-02-24T01:32:21.112Z,2.45
2023-02-24T01:34:53.402Z,2.44
2023-02-24T01:37:22.102Z,2.41
2023-02-24T01:39:51.204Z,2.41
2023-02-24T01:42:22.054Z,2.41
2023-02-24T01:44:52.455Z,2.41
2023-02-24T01:47:23.504Z,2.42
2023-02-24T01:49:55.060Z,2.41
2023-02-24T01:52:38.292Z,2.42
2023-02-24T01:55:24.670Z,2.42
2023-02-24T01:57:54.503Z,2.45
2023-02-24T02:00:38.378Z,2.49
2023-02-24T02:03:18.728Z,2.52
2023-02-24T02:05:48.824Z,2.55
2023-02-24T02:08:19.730Z,2.58
2023-02-24T02:10:48.253Z,2.63
2023-02-24T02:13:21.832Z,2.64
2023-02-24T02:15:56.954Z,2.66
2023-02-24T02:18:59.239Z,2.66
2023-02-24T02:21:36.838Z,2.67
2023-02-24T02:24:27.133Z,2.68
2023-02-24T02:27:07.036Z,2.67
2023-02-24T02:29:47.425Z,2.67
2023-02-24T02:32:22.218Z,2.68
2023-02-24T02:35:19.418Z,2.68
2023-02-24T02:37:57.314Z,2.67
2023-02-24T02:41:03.244Z,2.68
2023-02-24T02:43:39.779Z,2.67
2023-02-24T02:46:35.926Z,2.69
2023-02-24T02:49:21.197Z,2.70
2023-02-24T02:51:57.546Z,2.73
2023-02-24T02:54:45.597Z,2.73
2023-02-24T02:57:21.657Z,2.76
2023-02-24T03:00:21.670Z,2.77
2023-02-24T03:03:03.528Z,2.79
2023-02-24T03:05:46.697Z,2.82
2023-02-24T03:08:25.968Z,2.81
2023-02-24T03:11:00.517Z,2.81
2023-02-24T03:13:37.021Z,2.80
2023-02-24T03:16:06.793Z,2.79
2023-02-24T03:18:41.341Z,2.80
2023-02-24T03:21:16.955Z,2.78
2023-02-24T03:23:50.262Z,2.78
2023-02-24T03:26:21.802Z,2.79
2023-02-24T03:28:59.524Z,2.77
2023-02-24T03:31:35.926Z,2.77
2023-02-24T03:34:43.491Z,2.74
2023-02-24T03:37:12.551Z,2.73
2023-02-24T03:39:41.480Z,2.72
2023-02-24T03:42:19.178Z,2.73
2023-02-24T03:44:50.029Z,2.72
2023-02-24T03:47:20.757Z,2.73
2023-02-24T03:49:50.581Z,2.74
2023-02-24T03:52:29.299Z,2.74
2023-02-24T03:55:23.893Z,2.72
2023-02-24T03:58:32.376Z,2.70
2023-02-24T04:01:10.886Z,2.67
2023-02-24T04:04:22.580Z,2.64
2023-02-24T04:07:17.146Z,2.61
2023-02-24T04:10:20.329Z,2.59
2023-02-24T04:12:52.731Z,2.59
2023-02-24T04:15:44.100Z,2.60
2023-02-24T04:18:19.774Z,2.60
2023-02-24T04:20:53.562Z,2.60
2023-02-24T04:23:31.975Z,2.58
2023-02-24T04:26:01.924Z,2.57
2023-02-24T04:28:31.519Z,2.59
2023-02-24T04:31:10.360Z,2.60
2023-02-24T04:33:40.567Z,2.61
2023-02-24T04:36:13.071Z,2.62
2023-02-24T04:38:42.241Z,2.64
2023-02-24T04:41:11.163Z,2.64
2023-02-24T04:43:41.159Z,2.64
2023-02-24T04:46:09.483Z,2.63
2023-02-24T04:48:39.253Z,2.62
2023-02-24T04:51:08.456Z,2.61
2023-02-24T04:53:38.274Z,2.60
2023-02-24T04:56:10.130Z,2.61
2023-02-24T04:58:40.076Z,2.62
2023-02-24T05:01:13.540Z,2.64
2023-02-24T05:03:45.355Z,2.64
2023-02-24T05:06:17.949Z,2.66
2023-02-24T05:08:46.293Z,2.67
2023-02-24T05:11:16.519Z,2.68
2023-02-24T05:13:46.158Z,2.69
2023-02-24T05:16:18.193Z,2.69
2023-02-24T05:18:46.683Z,2.69
2023-02-24T05:21:35.751Z,2.71
2023-02-24T05:24:07.327Z,2.74
2023-02-24T05:26:38.171Z,2.73
2023-02-24T05:29:07.034Z,2.75
2023-02-24T05:31:37.241Z,2.77
2023-02-24T05:34:08.025Z,2.80
2023-02-24T05:36:40.548Z,2.81
2023-02-24T05:39:14.792Z,2.84
2023-02-24T05:41:43.484Z,2.88
2023-02-24T05:44:16.030Z,2.91
2023-02-24T05:46:46.874Z,2.94
2023-02-24T05:49:24.021Z,2.96
2023-02-24T05:51:55.520Z,3.01
2023-02-24T05:54:33.030Z,3.04
2023-02-24T05:57:14.140Z,3.10
2023-02-24T05:59:46.076Z,3.14
2023-02-24T06:02:16.439Z,3.20
2023-02-24T06:04:55.821Z,3.24
2023-02-24T06:07:29.247Z,3.29
2023-02-24T06:10:00.238Z,3.35
2023-02-24T06:12:34.201Z,3.40
2023-02-24T06:15:08.058Z,3.44
2023-02-24T06:17:37.006Z,3.46
2023-02-24T06:20:15.207Z,3.49
2023-02-24T06:22:43.419Z,3.52
2023-02-24T06:25:12.213Z,3.55
2023-02-24T06:27:40.668Z,3.57
2023-02-24T06:30:10.585Z,3.59
2023-02-24T06:32:39.368Z,3.62
2023-02-24T06:35:08.805Z,3.65
2023-02-24T06:37:37.384Z,3.70
2023-02-24T06:40:16.083Z,3.75
2023-02-24T06:42:54.307Z,3.81
2023-02-24T06:45:24.535Z,3.85
2023-02-24T06:47:53.434Z,3.89
2023-02-24T06:50:22.228Z,3.94
2023-02-24T06:52:55.102Z,3.98
2023-02-24T06:55:26.442Z,4.02
2023-02-24T06:57:57.922Z,4.06
2023-02-24T07:00:40.880Z,4.13
2023-02-24T07:03:17.364Z,4.18
2023-02-24T07:05:50.594Z,4.24
2023-02-24T07:08:24.172Z,4.28
2023-02-24T07:10:54.232Z,4.34
2023-02-24T07:13:28.903Z,4.38
2023-02-24T07:16:06.965Z,4.43
2023-02-24T07:18:41.796Z,4.49
2023-02-24T07:21:16.515Z,4.55
2023-02-24T07:23:45.817Z,4.62
2023-02-24T07:26:19.140Z,4.72
2023-02-24T07:28:48.247Z,4.82
2023-02-24T07:31:19.832Z,4.91
2023-02-24T07:33:48.878Z,4.99
2023-02-24T07:36:23.397Z,5.09
2023-02-24T07:38:54.043Z,5.18
2023-02-24T07:41:23.681Z,5.25
2023-02-24T07:43:56.354Z,5.35
2023-02-24T07:46:28.216Z,5.44
2023-02-24T07:49:00.034Z,5.53
2023-02-24T07:51:29.895Z,5.58
2023-02-24T07:54:01.468Z,5.68
2023-02-24T07:56:31.502Z,5.77
2023-02-24T07:59:03.013Z,5.89
2023-02-24T08:01:39.210Z,6.00
2023-02-24T08:04:08.976Z,6.10
2023-02-24T08:06:46.090Z,6.18
2023-02-24T08:09:18.521Z,6.26
2023-02-24T08:11:52.606Z,6.32
2023-02-24T08:14:32.936Z,6.40
2023-02-24T08:17:05.573Z,6.51
2023-02-24T08:19:39.915Z,6.60
2023-02-24T08:22:20.144Z,6.72
2023-02-24T08:24:52.882Z,6.82
2023-02-24T08:27:25.947Z,6.88
2023-02-24T08:29:58.381Z,6.98
2023-02-24T08:32:38.421Z,7.09
2023-02-24T08:35:15.110Z,7.21
2023-02-24T08:37:47.665Z,7.26
2023-02-24T08:40:33.423Z,7.31
2023-02-24T08:43:22.467Z,7.43
2023-02-24T08:46:25.820Z,7.61
2023-02-24T08:49:01.151Z,7.83
2023-02-24T08:51:35.690Z,7.97
2023-02-24T08:54:15.774Z,8.09
2023-02-24T08:56:49.382Z,8.28
2023-02-24T08:59:37.695Z,8.49
2023-02-24T09:02:24.628Z,8.73
2023-02-24T09:05:04.079Z,8.98
2023-02-24T09:07:37.632Z,9.20
2023-02-24T09:10:11.798Z,9.36
2023-02-24T09:12:41.595Z,9.56
2023-02-24T09:15:17.528Z,9.78
2023-02-24T09:17:46.343Z,10.07
2023-02-24T09:20:43.803Z,10.40
2023-02-24T09:23:20.453Z,10.75
2023-02-24T09:25:54.720Z,11.18
2023-02-24T09:28:27.662Z,11.82
2023-02-24T09:31:05.069Z,12.56
2023-02-24T09:33:41.969Z,13.17
2023-02-24T09:36:27.993Z,13.59
2023-02-24T09:39:00.793Z,14.00
2023-02-24T09:42:02.762Z,14.28
2023-02-24T09:44:37.387Z,14.65
2023-02-24T09:47:20.206Z,15.05
2023-02-24T09:49:59.339Z,15.27
2023-02-24T09:52:43.109Z,15.56
2023-02-24T09:55:26.642Z,15.69
2023-02-24T09:58:31.928Z,15.66
2023-02-24T10:01:34.456Z,15.51
2023-02-24T10:04:21.501Z,15.54
2023-02-24T10:07:03.253Z,15.54
2023-02-24T10:09:42.827Z,15.60
2023-02-24T10:12:20.113Z,15.64
2023-02-24T10:15:00.543Z,15.54
2023-02-24T10:17:40.445Z,15.31
2023-02-24T10:20:28.760Z,15.05
2023-02-24T10:23:29.807Z,14.93
2023-02-24T10:26:51.347Z,15.03
2023-02-24T10:29:39.730Z,14.98
2023-02-24T10:32:24.086Z,15.05
2023-02-24T10:34:53.585Z,15.17
2023-02-24T10:37:29.039Z,15.37
2023-02-24T10:40:10.277Z,15.49
2023-02-24T10:42:49.023Z,15.50
2023-02-24T10:45:24.806Z,15.47
2023-02-24T10:47:57.418Z,15.33
2023-02-24T10:50:54.870Z,15.46
2023-02-24T10:53:41.206Z,15.58
2023-02-24T10:56:27.193Z,15.56
2023-02-24T10:59:24.894Z,15.33
2023-02-24T11:01:59.391Z,15.18
2023-02-24T11:05:03.870Z,15.06
2023-02-24T11:07:53.795Z,14.89
2023-02-24T11:10:41.605Z,14.81
2023-02-24T11:13:35.857Z,14.74
2023-02-24T11:16:26.675Z,14.43
2023-02-24T11:18:57.445Z,14.14
2023-02-24T11:21:27.650Z,13.95
2023-02-24T11:24:03.062Z,13.76
2023-02-24T11:26:38.007Z,13.56
2023-02-24T11:29:58.566Z,13.40
2023-02-24T11:33:04.606Z,13.23
2023-02-24T11:35:56.952Z,13.14
2023-02-24T11:38:42.533Z,13.07
2023-02-24T11:41:41.251Z,13.07
2023-02-24T11:44:35.052Z,13.02
2023-02-24T11:47:09.984Z,13.06
2023-02-24T11:49:48.603Z,13.22
2023-02-24T11:52:22.821Z,13.27
2023-02-24T11:54:56.873Z,13.18
2023-02-24T11:57:45.789Z,13.10
2023-02-24T12:00:29.635Z,12.96
2023-02-24T12:03:05.097Z,12.87
2023-02-24T12:05:39.322Z,12.77
2023-02-24T12:08:32.027Z,12.64
2023-02-24T12:11:33.884Z,12.55
2023-02-24T12:14:02.160Z,12.44
2023-02-24T12:16:35.894Z,12.41
2023-02-24T12:19:15.197Z,12.47
2023-02-24T12:21:48.801Z,12.49
2023-02-24T12:24:17.398Z,12.44
2023-02-24T12:27:01.479Z,12.43
2023-02-24T12:30:06.741Z,12.40
2023-02-24T12:32:52.354Z,12.28
2023-02-24T12:35:53.157Z,12.22
2023-02-24T12:38:27.788Z,12.21
2023-02-24T12:41:18.827Z,12.18
2023-02-24T12:44:06.098Z,12.16
2023-02-24T12:46:37.615Z,12.16
2023-02-24T12:49:18.125Z,12.06
2023-02-24T12:51:54.702Z,11.98
2023-02-24T12:54:49.777Z,11.96
2023-02-24T12:57:34.130Z,11.97
2023-02-24T13:00:15.038Z,12.05
2023-02-24T13:03:10.402Z,12.10
2023-02-24T13:05:59.758Z,12.13
2023-02-24T13:08:40.534Z,12.13
2023-02-24T13:11:59.273Z,12.09
2023-02-24T13:14:41.254Z,11.97
2023-02-24T13:17:12.824Z,11.85
2023-02-24T13:19:43.762Z,11.78
2023-02-24T13:22:12.140Z,11.86
2023-02-24T13:24:44.815Z,11.92
2023-02-24T13:27:13.405Z,11.83
2023-02-24T13:29:54.493Z,11.77
2023-02-24T13:32:25.892Z,11.81
2023-02-24T13:34:54.655Z,12.03
2023-02-24T13:37:34.867Z,12.72
2023-02-24T13:40:26.710Z,13.76
2023-02-24T13:42:58.460Z,14.58
2023-02-24T13:45:31.276Z,15.40
2023-02-24T13:48:41.079Z,16.18
2023-02-24T13:51:26.459Z,16.90
2023-02-24T13:54:23.606Z,17.07
2023-02-24T13:57:16.538Z,17.17
2023-02-24T14:00:13.281Z,17.05
2023-02-24T14:02:44.394Z,16.40
2023-02-24T14:05:36.014Z,15.76
2023-02-24T14:08:05.338Z,14.98
2023-02-24T14:10:36.341Z,14.31
2023-02-24T14:13:08.556Z,13.82
2023-02-24T14:15:42.156Z,13.37
2023-02-24T14:18:19.434Z,12.97
2023-02-24T14:20:48.039Z,12.71
2023-02-24T14:23:29.256Z,12.48
2023-02-24T14:26:06.410Z,12.28
2023-02-24T14:28:37.772Z,12.08
2023-02-24T14:31:15.590Z,11.88
2023-02-24T14:33:45.587Z,11.69
2023-02-24T14:36:18.800Z,11.51
2023-02-24T14:38:47.458Z,11.39
2023-02-24T14:41:27.855Z,11.34
2023-02-24T14:43:56.812Z,11.26
2023-02-24T14:46:25.548Z,11.20
2023-02-24T14:48:56.396Z,11.14
2023-02-24T14:51:36.455Z,11.04
2023-02-24T14:54:13.365Z,10.89
2023-02-24T14:56:42.260Z,10.76
2023-02-24T14:59:39.197Z,10.62
2023-02-24T15:02:19.216Z,10.47
2023-02-24T15:04:48.041Z,10.36
2023-02-24T15:07:21.444Z,10.26
2023-02-24T15:09:51.977Z,10.17
2023-02-24T15:12:23.229Z,10.06
2023-02-24T15:14:55.108Z,9.97
2023-02-24T15:17:23.971Z,9.89
2023-02-24T15:19:55.188Z,9.77
2023-02-24T15:22:28.133Z,9.63
2023-02-24T15:25:16.661Z,9.54
2023-02-24T15:28:02.083Z,9.40
2023-02-24T15:30:40.236Z,9.30
2023-02-24T15:33:21.217Z,9.20
2023-02-24T15:35:54.608Z,9.12
2023-02-24T15:38:26.066Z,9.05
2023-02-24T15:41:01.008Z,8.98
2023-02-24T15:43:37.441Z,8.94
2023-02-24T15:46:15.720Z,8.89
2023-02-24T15:48:47.233Z,8.82
2023-02-24T15:51:37.332Z,8.77
2023-02-24T15:54:12.957Z,8.70
2023-02-24T15:56:42.848Z,8.66
2023-02-24T15:59:15.261Z,8.65
2023-02-24T16:01:43.955Z,8.63
2023-02-24T16:04:12.324Z,8.63
2023-02-24T16:06:44.101Z,8.62
2023-02-24T16:09:15.201Z,8.61
2023-02-24T16:11:47.038Z,8.60
2023-02-24T16:14:17.945Z,8.58
2023-02-24T16:16:46.374Z,8.57
2023-02-24T16:19:15.967Z,8.50
2023-02-24T16:21:44.479Z,8.45
2023-02-24T16:24:13.026Z,8.41
2023-02-24T16:26:41.915Z,8.36
2023-02-24T16:29:14.886Z,8.32
2023-02-24T16:31:43.241Z,8.29
2023-02-24T16:34:15.932Z,8.26
2023-02-24T16:36:44.463Z,8.23
2023-02-24T16:39:14.387Z,8.19
2023-02-24T16:41:42.764Z,8.14
2023-02-24T16:44:11.359Z,8.11
2023-02-24T16:46:44.036Z,8.07
2023-02-24T16:49:19.275Z,8.03
2023-02-24T16:51:47.675Z,8.00
2023-02-24T16:54:15.941Z,7.95
2023-02-24T16:56:45.548Z,7.91
2023-02-24T16:59:14.388Z,7.88
2023-02-24T17:01:43.130Z,7.88
2023-02-24T17:04:13.620Z,7.88
2023-02-24T17:06:41.857Z,7.91
2023-02-24T17:09:10.253Z,7.93
2023-02-24T17:11:38.523Z,7.95
2023-02-24T17:14:06.925Z,7.97
2023-02-24T17:16:39.667Z,8.00
2023-02-24T17:19:08.900Z,7.99
2023-02-24T17:21:40.769Z,7.98
2023-02-24T17:24:20.231Z,7.96
2023-02-24T17:26:48.590Z,7.92
2023-02-24T17:29:16.970Z,7.88
2023-02-24T17:31:45.887Z,7.83
2023-02-24T17:34:14.351Z,7.78
2023-02-24T17:36:42.835Z,7.73
2023-02-24T17:39:11.290Z,7.68
2023-02-24T17:41:39.701Z,7.65
2023-02-24T17:44:08.089Z,7.62
2023-02-24T17:46:36.953Z,7.59
2023-02-24T17:49:05.577Z,7.57
2023-02-24T17:51:33.956Z,7.56
2023-02-24T17:54:02.440Z,7.56
2023-02-24T17:56:31.238Z,7.56
2023-02-24T17:59:01.179Z,7.56
2023-02-24T18:01:29.771Z,7.58
2023-02-24T18:03:58.237Z,7.59
2023-02-24T18:06:26.922Z,7.59
2023-02-24T18:08:55.310Z,7.60
2023-02-24T18:11:23.485Z,7.60
2023-02-24T18:13:52.890Z,7.59
2023-02-24T18:16:22.033Z,7.57
2023-02-24T18:18:50.995Z,7.54
2023-02-24T18:21:19.805Z,7.53
2023-02-24T18:23:49.907Z,7.53
2023-02-24T18:26:18.912Z,7.51
2023-02-24T18:28:47.294Z,7.51
2023-02-24T18:31:19.224Z,7.52
2023-02-24T18:33:48.240Z,7.50
2023-02-24T18:36:17.875Z,7.50
2023-02-24T18:38:46.766Z,7.51
2023-02-24T18:41:21.300Z,7.52
2023-02-24T18:43:52.549Z,7.52
2023-02-24T18:46:22.548Z,7.52
2023-02-24T18:48:51.689Z,7.50
2023-02-24T18:51:23.536Z,7.49
2023-02-24T18:53:53.065Z,7.47
2023-02-24T18:56:26.877Z,7.45
2023-02-24T18:58:57.400Z,7.43
2023-02-24T19:01:30.088Z,7.41
2023-02-24T19:03:59.135Z,7.39
2023-02-24T19:06:29.493Z,7.38
2023-02-24T19:09:21.760Z,7.40
2023-02-24T19:11:51.103Z,7.38
2023-02-24T19:14:19.409Z,7.39
2023-02-24T19:16:47.897Z,7.40
2023-02-24T19:19:16.837Z,7.42
2023-02-24T19:21:45.795Z,7.44
2023-02-24T19:24:14.791Z,7.47
2023-02-24T19:26:47.707Z,7.50
2023-02-24T19:29:17.393Z,7.54
2023-02-24T19:31:46.044Z,7.58
2023-02-24T19:34:15.593Z,7.61
2023-02-24T19:36:43.874Z,7.62
2023-02-24T19:39:15.029Z,7.62
2023-02-24T19:41:44.120Z,7.61
2023-02-24T19:44:13.040Z,7.59
2023-02-24T19:46:43.365Z,7.55
2023-02-24T19:49:14.835Z,7.50
2023-02-24T19:51:43.809Z,7.44
2023-02-24T19:54:14.004Z,7.34
2023-02-24T19:56:42.417Z,7.24
2023-02-24T19:59:11.540Z,7.15
2023-02-24T20:01:39.874Z,7.05
2023-02-24T20:04:09.034Z,6.94
2023-02-24T20:06:40.456Z,6.81
2023-02-24T20:09:11.494Z,6.71
2023-02-24T20:11:40.339Z,6.63
2023-02-24T20:14:10.545Z,6.55
2023-02-24T20:16:40.489Z,6.49
2023-02-24T20:19:10.053Z,6.41
2023-02-24T20:21:39.251Z,6.33
2023-02-24T20:24:13.391Z,6.25
2023-02-24T20:26:47.255Z,6.18
2023-02-24T20:29:18.427Z,6.11
2023-02-24T20:31:47.959Z,6.05
2023-02-24T20:34:16.979Z,5.98
2023-02-24T20:36:46.032Z,5.91
2023-02-24T20:39:14.757Z,5.87
2023-02-24T20:41:43.956Z,5.83
2023-02-24T20:44:13.233Z,5.82
2023-02-24T20:46:42.674Z,5.80
2023-02-24T20:49:14.738Z,5.78
2023-02-24T20:51:43.787Z,5.77
2023-02-24T20:54:13.444Z,5.77
2023-02-24T20:56:43.700Z,5.75
2023-02-24T20:59:22.188Z,5.73
2023-02-24T21:01:51.156Z,5.72
2023-02-24T21:04:21.544Z,5.70
2023-02-24T21:06:52.024Z,5.66
2023-02-24T21:09:20.311Z,5.63
2023-02-24T21:11:48.821Z,5.59
2023-02-24T21:14:17.694Z,5.59
2023-02-24T21:16:46.810Z,5.57
2023-02-24T21:19:15.392Z,5.56
2023-02-24T21:21:43.965Z,5.57
2023-02-24T21:24:12.358Z,5.52
2023-02-24T21:26:40.734Z,5.41
2023-02-24T21:29:09.016Z,5.36
2023-02-24T21:31:37.495Z,5.34
2023-02-24T21:34:06.317Z,5.35
2023-02-24T21:36:34.572Z,5.39
2023-02-24T21:39:03.174Z,5.44
2023-02-24T21:41:31.789Z,5.47
2023-02-24T21:44:00.805Z,5.50
2023-02-24T21:46:30.454Z,5.54
2023-02-24T21:48:59.676Z,5.54
2023-02-24T21:51:29.429Z,5.56
2023-02-24T21:53:58.407Z,5.55
2023-02-24T21:56:29.431Z,5.52
2023-02-24T21:59:01.914Z,5.47
2023-02-24T22:01:39.490Z,5.48
2023-02-24T22:04:11.071Z,5.54
2023-02-24T22:06:41.965Z,5.58
2023-02-24T22:09:11.209Z,5.60
2023-02-24T22:11:41.205Z,5.61
2023-02-24T22:14:14.113Z,5.59
2023-02-24T22:16:43.265Z,5.53
2023-02-24T22:19:12.250Z,5.45
2023-02-24T22:21:42.624Z,5.40
2023-02-24T22:24:13.971Z,5.32
2023-02-24T22:26:43.193Z,5.24
2023-02-24T22:29:11.997Z,5.20
2023-02-24T22:31:43.916Z,5.20
2023-02-24T22:34:14.895Z,5.22
2023-02-24T22:36:43.616Z,5.24
2023-02-24T22:39:16.754Z,5.23
2023-02-24T22:41:46.916Z,5.20
2023-02-24T22:44:19.398Z,5.17
2023-02-24T22:46:48.408Z,5.20
2023-02-24T22:49:17.455Z,5.23
2023-02-24T22:51:45.949Z,5.26
2023-02-24T22:54:14.779Z,5.26
2023-02-24T22:56:43.741Z,5.24
2023-02-24T22:59:12.764Z,5.22
2023-02-24T23:01:43.892Z,5.21
2023-02-24T23:04:17.267Z,5.19
2023-02-24T23:06:47.803Z,5.17
2023-02-24T23:09:20.106Z,5.12
2023-02-24T23:11:49.112Z,5.05
2023-02-24T23:14:17.611Z,4.98
2023-02-24T23:16:47.510Z,4.95
2023-02-24T23:19:18.025Z,4.91
2023-02-24T23:21:49.859Z,4.87
2023-02-24T23:24:20.020Z,4.86
2023-02-24T23:26:54.767Z,4.84
2023-02-24T23:29:24.439Z,4.80
2023-02-24T23:31:53.595Z,4.77
2023-02-24T23:34:22.074Z,4.72
2023-02-24T23:36:51.077Z,4.68
2023-02-24T23:39:24.049Z,4.65
2023-02-24T23:41:56.985Z,4.63
2023-02-24T23:44:26.068Z,4.61
2023-02-24T23:46:55.290Z,4.59
2023-02-24T23:49:24.288Z,4.59
2023-02-24T23:51:52.738Z,4.57
2023-02-24T23:54:21.121Z,4.57
2023-02-24T23:56:54.417Z,4.58
2023-02-24T23:59:23.170Z,4.59
